This is the latest recevied weather packets stored in our database for station/object WMSA. If no packets are shown the sender has not sent any weather packets the latest 10 day(s).
| Time | Temp. | Humidity | Pressure | Rain* | Wind** | Luminosity | Snow |
|---|---|---|---|---|---|---|---|
| 1788495268 | 32.78° C | 59% | 1012 hPa | - | - | - | - |
| 1788491663 | 30.56° C | 66% | 1013 hPa | - | - | - | - |
| 1788488064 | 30° C | 70% | 1013 hPa | - | - | - | - |
| 1788473663 | 25.56° C | 88% | 1012 hPa | - | - | - | - |
| 1788470063 | 26.67° C | 83% | 1010 hPa | - | - | - | - |
| 1788466463 | 26.67° C | 88% | 1010 hPa | - | - | - | - |
| 1788444870 | 26.67° C | 88% | 1011 hPa | - | - | - | - |
| 1788437662 | 26.67° C | 88% | 1010 hPa | - | - | - | - |
| 1788434062 | 27.78° C | 83% | 1009 hPa | - | - | - | - |
| 1788432262 | 26.67° C | 88% | 1009 hPa | - | - | - | - |
| 1788431677 | 27.78° C | 80% | 1010 hPa | - | - | - | - |
| 1788430468 | 26.67° C | 88% | 1009 hPa | - | - | - | - |
| 1788429862 | 25.56° C | 88% | 1009 hPa | - | - | - | - |
| 1788429277 | 28.33° C | 76% | 1009.8 hPa | - | - | - | - |
| 1788426861 | 25.56° C | 88% | 1009 hPa | - | - | - | - |
| 1788424454 | 25° C | 88% | 1009 hPa | - | - | - | - |
| 1788423862 | 25° C | 94% | 1009 hPa | - | - | - | - |
| 1788423276 | 28.89° C | 71% | 1009.9 hPa | - | - | - | - |
| 1788422055 | 25.56° C | 88% | 1009 hPa | - | - | - | - |
| 1788420861 | 30° C | 74% | 1009 hPa | - | - | - | - |
| 1788420276 | 29.44° C | 72% | 1010.4 hPa | - | - | - | - |
| 1788419681 | 32.78° C | 59% | 1009 hPa | - | - | - | - |
| 1788419077 | 29.44° C | 71% | 1010.6 hPa | - | - | - | - |
| 1788416068 | 33.89° C | 56% | 1010 hPa | - | - | - | - |
| 1788412461 | 32.78° C | 59% | 1011 hPa | - | - | - | - |
* Rain since midnight (hover to see other rain measurements)
** Current wind speed in m/s (hover to see current wind gust speed)